Time;durP1;ratioP1;P1;durP2;ratioP2;P2;SDS_P1;SDS_P2;PMS_P1;PMS_P2;Temp;Humidity;BMP_temperature;BMP_pressure;BME280_temperature;BME280_humidity;BME280_pressure;Samples;Min_cycle;Max_cycle;Signal;HPM_P1;HPM_P2
2024/01/01 00:00:10;;;;;;;52.30;21.95;;;;;;;;;;4964911;29;20270;-52
2024/01/01 00:02:38;;;;;;;39.90;20.70;;;;;;;;;;4962019;29;20091;-54
2024/01/01 00:05:04;;;;;;;42.05;22.13;;;;;;;;;;4956921;29;20269;-51
2024/01/01 00:07:29;;;;;;;41.20;19.30;;;;;;;;;;4956803;29;20040;-49
2024/01/01 00:09:55;;;;;;;33.20;16.63;;;;;;;;;;4961444;29;20035;-50
2024/01/01 00:12:20;;;;;;;41.67;17.58;;;;;;;;;;4957423;29;20071;-53
2024/01/01 00:14:46;;;;;;;24.77;11.23;;;;;;;;;;4956495;29;20032;-56
2024/01/01 00:17:13;;;;;;;30.75;11.55;;;;;;;;;;4965718;29;20039;-49
2024/01/01 00:19:38;;;;;;;24.23;11.77;;;;;;;;;;4957814;29;20091;-52
2024/01/01 00:22:03;;;;;;;21.47;8.93;;;;;;;;;;4966488;29;20266;-52
2024/01/01 00:24:29;;;;;;;25.52;8.88;;;;;;;;;;4956354;29;20078;-54
2024/01/01 00:26:55;;;;;;;24.73;9.63;;;;;;;;;;4955221;29;20063;-55
2024/01/01 00:29:20;;;;;;;25.23;8.10;;;;;;;;;;4971474;29;20270;-55
2024/01/01 00:31:46;;;;;;;15.02;6.45;;;;;;;;;;4966673;29;20081;-50
2024/01/01 00:34:11;;;;;;;14.87;6.43;;;;;;;;;;4946047;29;20047;-54
2024/01/01 00:36:37;;;;;;;17.20;7.00;;;;;;;;;;4929499;29;20027;-54
2024/01/01 00:39:03;;;;;;;13.02;6.10;;;;;;;;;;4944750;29;20032;-54
2024/01/01 00:41:29;;;;;;;16.92;5.63;;;;;;;;;;4961628;29;20095;-53
2024/01/01 00:43:54;;;;;;;15.20;4.93;;;;;;;;;;4959598;29;20031;-55
2024/01/01 00:46:20;;;;;;;13.50;5.32;;;;;;;;;;4955519;29;20034;-56
2024/01/01 00:48:45;;;;;;;13.80;5.03;;;;;;;;;;4940658;29;20108;-55
2024/01/01 00:51:11;;;;;;;16.97;5.07;;;;;;;;;;4958025;29;20302;-55
2024/01/01 00:53:36;;;;;;;11.52;3.97;;;;;;;;;;4955828;29;20046;-55
2024/01/01 00:56:03;;;;;;;16.73;5.78;;;;;;;;;;4956899;29;20032;-54
2024/01/01 00:58:28;;;;;;;12.03;3.47;;;;;;;;;;4967520;29;20062;-52
2024/01/01 01:00:53;;;;;;;8.97;3.13;;;;;;;;;;4962633;29;20305;-56
2024/01/01 01:03:19;;;;;;;19.37;9.03;;;;;;;;;;4950014;29;20039;-55
2024/01/01 01:05:44;;;;;;;15.35;4.22;;;;;;;;;;4963151;29;20035;-52
2024/01/01 01:08:10;;;;;;;15.77;6.90;;;;;;;;;;4948334;29;20035;-54
2024/01/01 01:10:35;;;;;;;12.83;2.90;;;;;;;;;;4943323;29;20039;-54
2024/01/01 01:13:00;;;;;;;5.40;2.43;;;;;;;;;;4972551;29;20063;-55
2024/01/01 01:15:26;;;;;;;5.13;2.83;;;;;;;;;;4963547;29;20031;-53
2024/01/01 01:17:52;;;;;;;7.63;2.30;;;;;;;;;;4960315;29;20097;-55
2024/01/01 01:20:18;;;;;;;9.80;3.00;;;;;;;;;;4957295;29;20024;-53
2024/01/01 01:22:44;;;;;;;;;;;;;;;;;;4967225;29;20062;-54
2024/01/01 01:25:10;;;;;;;5.22;2.55;;;;;;;;;;4962355;29;19930;-51
2024/01/01 01:27:36;;;;;;;13.73;2.85;;;;;;;;;;4959408;29;20040;-54
2024/01/01 01:30:02;;;;;;;4.40;2.27;;;;;;;;;;4959360;29;20027;-54
2024/01/01 01:32:27;;;;;;;5.82;2.53;;;;;;;;;;4964228;29;20050;-50
2024/01/01 01:34:53;;;;;;;9.60;2.50;;;;;;;;;;4945008;29;20131;-53
2024/01/01 01:37:18;;;;;;;10.97;2.30;;;;;;;;;;4959440;29;20038;-51
2024/01/01 01:39:44;;;;;;;7.13;2.70;;;;;;;;;;4960722;29;20032;-54
2024/01/01 01:42:10;;;;;;;12.73;3.70;;;;;;;;;;4968761;29;20047;-55
2024/01/01 01:44:35;;;;;;;6.82;2.42;;;;;;;;;;4954951;29;20091;-53
2024/01/01 01:47:01;;;;;;;8.33;2.03;;;;;;;;;;4942336;29;20023;-53
2024/01/01 01:49:27;;;;;;;9.30;2.28;;;;;;;;;;4959185;29;20032;-52
2024/01/01 01:51:53;;;;;;;12.30;2.33;;;;;;;;;;4942336;29;20043;-53
2024/01/01 01:54:18;;;;;;;8.85;2.20;;;;;;;;;;4951704;29;20281;-54
2024/01/01 01:56:44;;;;;;;11.73;2.65;;;;;;;;;;4959186;29;20032;-53
2024/01/01 01:59:09;;;;;;;14.17;2.67;;;;;;;;;;4941799;29;20036;-54
2024/01/01 02:01:36;;;;;;;7.85;2.65;;;;;;;;;;4946639;29;20305;-54
2024/01/01 02:04:01;;;;;;;12.57;2.35;;;;;;;;;;4962901;29;20061;-52
2024/01/01 02:06:27;;;;;;;17.83;2.70;;;;;;;;;;4959002;29;20035;-53
2024/01/01 02:08:52;;;;;;;12.57;2.27;;;;;;;;;;4957643;29;20282;-53
2024/01/01 02:11:17;;;;;;;9.15;1.80;;;;;;;;;;4943542;29;20036;-55
2024/01/01 02:13:43;;;;;;;11.20;2.10;;;;;;;;;;4965245;29;20038;-55
2024/01/01 02:16:09;;;;;;;7.13;1.77;;;;;;;;;;4959001;29;20354;-55
2024/01/01 02:18:34;;;;;;;6.33;2.07;;;;;;;;;;4964431;29;20094;-54
2024/01/01 02:20:59;;;;;;;11.97;1.93;;;;;;;;;;4950671;29;20039;-54
2024/01/01 02:23:25;;;;;;;10.52;2.25;;;;;;;;;;4959690;29;20043;-53
2024/01/01 02:25:51;;;;;;;14.90;2.47;;;;;;;;;;4958729;29;20043;-55
2024/01/01 02:28:17;;;;;;;13.73;2.90;;;;;;;;;;4958435;29;20036;-52
2024/01/01 02:30:42;;;;;;;11.80;2.67;;;;;;;;;;4958404;29;20427;-52
2024/01/01 02:33:09;;;;;;;9.27;3.33;;;;;;;;;;4970208;29;20035;-49
2024/01/01 02:35:35;;;;;;;18.10;3.63;;;;;;;;;;4959679;29;20056;-50
2024/01/01 02:38:01;;;;;;;20.75;3.58;;;;;;;;;;4958041;29;20039;-50
2024/01/01 02:40:26;;;;;;;21.80;7.38;;;;;;;;;;4958507;29;20023;-51
2024/01/01 02:42:52;;;;;;;27.42;10.90;;;;;;;;;;4968961;29;20030;-52
2024/01/01 02:45:20;;;;;;;15.63;4.20;;;;;;;;;;4960122;29;20070;-53
2024/01/01 02:47:45;;;;;;;18.20;4.05;;;;;;;;;;4957993;29;20047;-52
2024/01/01 02:50:11;;;;;;;21.60;4.07;;;;;;;;;;4966298;29;20028;-48
2024/01/01 02:52:36;;;;;;;20.43;3.70;;;;;;;;;;4967694;29;20036;-51
2024/01/01 02:55:02;;;;;;;17.97;3.63;;;;;;;;;;4963574;29;20024;-56
2024/01/01 02:57:27;;;;;;;24.17;3.20;;;;;;;;;;4941204;29;20100;-54
2024/01/01 02:59:53;;;;;;;15.27;2.88;;;;;;;;;;4958040;29;20092;-55
2024/01/01 03:02:18;;;;;;;16.00;3.27;;;;;;;;;;4940594;29;20098;-52
2024/01/01 03:04:44;;;;;;;16.13;3.70;;;;;;;;;;4943189;29;20034;-52
2024/01/01 03:07:09;;;;;;;21.00;3.50;;;;;;;;;;4957593;29;20063;-51
2024/01/01 03:09:35;;;;;;;8.05;2.88;;;;;;;;;;4957187;29;20031;-56
2024/01/01 03:12:00;;;;;;;17.63;3.37;;;;;;;;;;4947998;29;20041;-52
2024/01/01 03:14:26;;;;;;;14.93;3.38;;;;;;;;;;4960337;29;20826;-51
2024/01/01 03:16:51;;;;;;;20.83;3.83;;;;;;;;;;4961112;29;20039;-50
2024/01/01 03:19:17;;;;;;;15.47;3.20;;;;;;;;;;4955909;29;20332;-53
2024/01/01 03:21:42;;;;;;;18.55;2.65;;;;;;;;;;4949099;29;20043;-50
2024/01/01 03:24:09;;;;;;;11.17;2.17;;;;;;;;;;4966780;29;20031;-53
2024/01/01 03:26:34;;;;;;;9.15;2.55;;;;;;;;;;4962315;29;20275;-55
2024/01/01 03:29:00;;;;;;;23.77;3.63;;;;;;;;;;4956462;29;20055;-54
2024/01/01 03:31:25;;;;;;;18.17;3.27;;;;;;;;;;4957010;29;20044;-54
2024/01/01 03:33:51;;;;;;;16.17;2.43;;;;;;;;;;4962949;29;20038;-53
2024/01/01 03:36:16;;;;;;;19.83;2.72;;;;;;;;;;4961726;29;20028;-51
2024/01/01 03:38:41;;;;;;;17.20;3.57;;;;;;;;;;4940240;29;20032;-53
2024/01/01 03:41:07;;;;;;;15.85;2.40;;;;;;;;;;4966629;29;20034;-54
2024/01/01 03:43:33;;;;;;;13.07;3.07;;;;;;;;;;4966347;29;20120;-53
2024/01/01 03:45:59;;;;;;;24.00;3.15;;;;;;;;;;4958224;29;20036;-54
2024/01/01 03:48:24;;;;;;;13.43;2.65;;;;;;;;;;4940271;29;20063;-52
2024/01/01 03:50:50;;;;;;;19.40;3.47;;;;;;;;;;4956910;29;20039;-55
2024/01/01 03:53:15;;;;;;;10.50;2.47;;;;;;;;;;4944629;29;20039;-51
2024/01/01 03:55:41;;;;;;;15.63;2.80;;;;;;;;;;4960531;29;20044;-49
2024/01/01 03:58:07;;;;;;;7.05;2.65;;;;;;;;;;4956791;29;20309;-51
2024/01/01 04:00:32;;;;;;;19.30;2.83;;;;;;;;;;4939847;29;20031;-52
2024/01/01 04:02:57;;;;;;;16.00;2.10;;;;;;;;;;4958613;29;20030;-54
2024/01/01 04:05:23;;;;;;;20.00;2.67;;;;;;;;;;4957509;29;20039;-51
2024/01/01 04:07:48;;;;;;;8.73;1.95;;;;;;;;;;4956304;29;20066;-51
2024/01/01 04:10:14;;;;;;;8.75;2.42;;;;;;;;;;4939384;29;20099;-56
2024/01/01 04:12:40;;;;;;;12.23;2.90;;;;;;;;;;4956695;29;20032;-55
2024/01/01 04:15:05;;;;;;;12.90;3.10;;;;;;;;;;4966188;29;20277;-52
2024/01/01 04:17:31;;;;;;;13.98;2.35;;;;;;;;;;4958474;29;20424;-55
2024/01/01 04:19:57;;;;;;;16.83;2.95;;;;;;;;;;4955412;29;20039;-54
2024/01/01 04:22:22;;;;;;;14.90;2.67;;;;;;;;;;4956465;29;20036;-56
2024/01/01 04:24:48;;;;;;;12.88;2.60;;;;;;;;;;4966502;29;20038;-54
2024/01/01 04:27:13;;;;;;;10.93;2.20;;;;;;;;;;4955350;29;20099;-56
2024/01/01 04:29:39;;;;;;;11.10;2.83;;;;;;;;;;4955859;29;20286;-54
2024/01/01 04:32:04;;;;;;;7.73;2.33;;;;;;;;;;4947774;29;20109;-52
2024/01/01 04:34:30;;;;;;;15.93;2.33;;;;;;;;;;4963764;29;20059;-56
2024/01/01 04:36:55;;;;;;;13.32;2.90;;;;;;;;;;4959736;29;20059;-54
2024/01/01 04:39:21;;;;;;;11.60;2.80;;;;;;;;;;4960337;29;20032;-53
2024/01/01 04:41:46;;;;;;;8.02;1.90;;;;;;;;;;4969143;29;20032;-51
2024/01/01 04:44:12;;;;;;;13.00;1.60;;;;;;;;;;4962598;29;20194;-55
2024/01/01 04:46:37;;;;;;;11.97;2.63;;;;;;;;;;4969783;29;20273;-54
2024/01/01 04:49:03;;;;;;;16.70;2.53;;;;;;;;;;4960321;29;20047;-52
2024/01/01 04:51:29;;;;;;;12.65;2.30;;;;;;;;;;4959864;29;20039;-52
2024/01/01 04:53:54;;;;;;;10.30;1.80;;;;;;;;;;4965323;29;20046;-52
2024/01/01 04:56:23;;;;;;;16.58;2.05;;;;;;;;;;4966526;29;20052;-54
2024/01/01 04:58:50;;;;;;;18.92;3.03;;;;;;;;;;4958803;29;20032;-51
2024/01/01 05:01:15;;;;;;;8.10;2.00;;;;;;;;;;4961305;29;20039;-53
2024/01/01 05:03:41;;;;;;;14.77;2.77;;;;;;;;;;4963424;29;20042;-50
2024/01/01 05:06:06;;;;;;;13.07;3.00;;;;;;;;;;4962872;29;20059;-55
2024/01/01 05:08:32;;;;;;;9.30;2.47;;;;;;;;;;4960219;29;20035;-55
2024/01/01 05:10:58;;;;;;;13.97;3.07;;;;;;;;;;4953794;29;20060;-56
2024/01/01 05:13:23;;;;;;;16.90;3.37;;;;;;;;;;4960629;29;20035;-53
2024/01/01 05:15:48;;;;;;;7.47;2.17;;;;;;;;;;4971804;29;20031;-52
2024/01/01 05:18:14;;;;;;;10.63;2.30;;;;;;;;;;4959881;29;20027;-55
2024/01/01 05:20:39;;;;;;;18.00;2.30;;;;;;;;;;4959650;29;20047;-54
2024/01/01 05:23:05;;;;;;;13.53;2.67;;;;;;;;;;4956101;29;20047;-53
2024/01/01 05:25:30;;;;;;;14.97;3.33;;;;;;;;;;4972469;29;20079;-53
2024/01/01 05:27:55;;;;;;;19.57;3.57;;;;;;;;;;4967129;29;20050;-54
2024/01/01 05:30:21;;;;;;;20.53;2.63;;;;;;;;;;4956137;29;20039;-51
2024/01/01 05:32:46;;;;;;;12.98;2.30;;;;;;;;;;4960065;29;20043;-54
2024/01/01 05:35:12;;;;;;;12.57;2.50;;;;;;;;;;4966527;29;20032;-54
2024/01/01 05:37:37;;;;;;;8.60;2.50;;;;;;;;;;4966061;29;20513;-50
2024/01/01 05:40:03;;;;;;;13.00;2.43;;;;;;;;;;4959605;29;20031;-54
2024/01/01 05:42:31;;;;;;;14.70;2.70;;;;;;;;;;4959318;29;20318;-54
2024/01/01 05:44:57;;;;;;;12.13;2.90;;;;;;;;;;4966504;29;20120;-53
2024/01/01 05:47:22;;;;;;;12.30;3.60;;;;;;;;;;4959507;29;20028;-54
2024/01/01 05:49:48;;;;;;;18.95;3.33;;;;;;;;;;4959519;29;20031;-54
2024/01/01 05:52:14;;;;;;;14.70;3.13;;;;;;;;;;4964060;29;20070;-53
2024/01/01 05:54:39;;;;;;;16.13;2.50;;;;;;;;;;4966380;29;20028;-55
2024/01/01 05:57:04;;;;;;;13.80;2.70;;;;;;;;;;4959370;29;20091;-53
2024/01/01 05:59:30;;;;;;;12.57;3.07;;;;;;;;;;4959199;29;20269;-51
2024/01/01 06:01:55;;;;;;;7.93;1.90;;;;;;;;;;4969631;29;20046;-54
2024/01/01 06:04:20;;;;;;;15.73;2.80;;;;;;;;;;4965525;29;20032;-55
2024/01/01 06:06:46;;;;;;;15.67;2.80;;;;;;;;;;4974307;29;20042;-54
2024/01/01 06:09:11;;;;;;;11.13;1.97;;;;;;;;;;4944631;29;20273;-54
2024/01/01 06:11:37;;;;;;;18.98;2.90;;;;;;;;;;4965817;29;20079;-54
2024/01/01 06:14:03;;;;;;;13.18;3.00;;;;;;;;;;4961364;29;20031;-52
2024/01/01 06:16:29;;;;;;;11.53;2.63;;;;;;;;;;4969326;29;20061;-53
2024/01/01 06:18:54;;;;;;;16.45;2.55;;;;;;;;;;4959973;29;20038;-55
2024/01/01 06:21:20;;;;;;;22.73;2.78;;;;;;;;;;4962547;29;20058;-54
2024/01/01 06:23:46;;;;;;;20.80;3.63;;;;;;;;;;4960492;29;20039;-53
2024/01/01 06:26:12;;;;;;;;;;;;;;;;;;4963415;29;20035;-55
2024/01/01 06:28:38;;;;;;;9.63;2.50;;;;;;;;;;4960412;29;19918;-51
2024/01/01 06:31:03;;;;;;;17.15;2.80;;;;;;;;;;4958523;29;20091;-53
2024/01/01 06:33:29;;;;;;;9.40;2.27;;;;;;;;;;4958671;29;20035;-52
2024/01/01 06:35:55;;;;;;;18.05;2.58;;;;;;;;;;4968899;29;20095;-54
2024/01/01 06:38:20;;;;;;;17.90;3.10;;;;;;;;;;4963357;29;20041;-55
2024/01/01 06:40:45;;;;;;;9.73;3.33;;;;;;;;;;4958134;29;20060;-54
2024/01/01 06:43:11;;;;;;;22.97;3.63;;;;;;;;;;4958149;29;20051;-54
2024/01/01 06:45:36;;;;;;;12.20;3.47;;;;;;;;;;4967478;29;20034;-54
2024/01/01 06:48:01;;;;;;;6.30;2.40;;;;;;;;;;4964817;29;20047;-53
2024/01/01 06:50:27;;;;;;;15.30;3.30;;;;;;;;;;4958256;29;20039;-55
2024/01/01 06:52:52;;;;;;;15.37;2.90;;;;;;;;;;4958048;29;20031;-56
2024/01/01 06:55:17;;;;;;;12.83;2.50;;;;;;;;;;4962650;29;20037;-53
2024/01/01 06:57:43;;;;;;;22.15;3.88;;;;;;;;;;4961019;29;20028;-52
2024/01/01 07:00:09;;;;;;;13.27;2.90;;;;;;;;;;4958064;29;20039;-52
2024/01/01 07:02:34;;;;;;;11.75;3.35;;;;;;;;;;4957989;29;20054;-53
2024/01/01 07:05:00;;;;;;;17.10;3.53;;;;;;;;;;4963619;29;20039;-54
2024/01/01 07:07:26;;;;;;;14.68;3.92;;;;;;;;;;4960230;29;20028;-52
2024/01/01 07:09:51;;;;;;;29.13;5.73;;;;;;;;;;4958057;29;20039;-56
2024/01/01 07:12:18;;;;;;;15.30;3.87;;;;;;;;;;4961772;29;20035;-52
2024/01/01 07:14:44;;;;;;;22.05;4.05;;;;;;;;;;4965646;29;20297;-48
2024/01/01 07:17:09;;;;;;;17.53;3.77;;;;;;;;;;4970257;29;20059;-53
2024/01/01 07:19:35;;;;;;;14.20;3.93;;;;;;;;;;4957949;29;20348;-49
2024/01/01 07:22:00;;;;;;;12.87;3.63;;;;;;;;;;4957585;29;20067;-51
2024/01/01 07:24:26;;;;;;;18.05;3.33;;;;;;;;;;4959684;29;20580;-54
2024/01/01 07:26:51;;;;;;;22.70;4.83;;;;;;;;;;4961572;29;20047;-54
2024/01/01 07:29:17;;;;;;;15.17;3.40;;;;;;;;;;4967020;29;20309;-55
2024/01/01 07:31:43;;;;;;;12.18;4.13;;;;;;;;;;4957422;29;20036;-54
2024/01/01 07:34:09;;;;;;;25.30;7.23;;;;;;;;;;4974341;29;20063;-51
2024/01/01 07:36:34;;;;;;;15.75;3.67;;;;;;;;;;4965821;29;20302;-54
2024/01/01 07:39:00;;;;;;;23.53;4.97;;;;;;;;;;4963142;29;20040;-52
2024/01/01 07:41:26;;;;;;;11.85;2.78;;;;;;;;;;4940935;29;20039;-52
2024/01/01 07:43:51;;;;;;;16.27;3.40;;;;;;;;;;4961530;29;20042;-52
2024/01/01 07:46:17;;;;;;;10.07;3.30;;;;;;;;;;4960560;29;20036;-51
2024/01/01 07:48:42;;;;;;;20.58;4.00;;;;;;;;;;4960031;29;20099;-52
2024/01/01 07:51:08;;;;;;;21.92;5.13;;;;;;;;;;4957129;29;20063;-52
2024/01/01 07:53:33;;;;;;;14.67;3.80;;;;;;;;;;4957038;29;20040;-54
2024/01/01 07:56:04;;;;;;;15.13;4.47;;;;;;;;;;4962282;29;20297;-50
2024/01/01 07:58:30;;;;;;;19.88;4.40;;;;;;;;;;4967188;29;20032;-52
2024/01/01 08:00:56;;;;;;;17.93;3.93;;;;;;;;;;4958776;29;20062;-52
2024/01/01 08:03:22;;;;;;;13.00;3.30;;;;;;;;;;4965161;29;20062;-50
2024/01/01 08:05:47;;;;;;;17.05;3.92;;;;;;;;;;4958863;29;20059;-54
2024/01/01 08:08:13;;;;;;;22.30;5.30;;;;;;;;;;4966846;29;20038;-53
2024/01/01 08:10:38;;;;;;;19.05;3.95;;;;;;;;;;4958988;29;20066;-52
2024/01/01 08:13:04;;;;;;;12.00;3.70;;;;;;;;;;4956843;29;20031;-51
2024/01/01 08:15:29;;;;;;;16.40;3.47;;;;;;;;;;4969699;29;20266;-51
2024/01/01 08:17:55;;;;;;;27.03;4.57;;;;;;;;;;4961386;29;20062;-52
2024/01/01 08:20:20;;;;;;;25.37;4.13;;;;;;;;;;4956857;29;20262;-56
2024/01/01 08:22:47;;;;;;;23.88;4.03;;;;;;;;;;4957553;29;20073;-53
2024/01/01 08:25:12;;;;;;;30.23;4.22;;;;;;;;;;4959908;29;20063;-55
2024/01/01 08:27:38;;;;;;;14.30;3.20;;;;;;;;;;4961565;29;20028;-49
2024/01/01 08:30:06;;;;;;;23.42;4.18;;;;;;;;;;4956668;29;20023;-55
2024/01/01 08:32:32;;;;;;;18.20;3.58;;;;;;;;;;4956910;29;20042;-56
2024/01/01 08:34:58;;;;;;;19.45;4.43;;;;;;;;;;4961162;29;20091;-55
2024/01/01 08:37:23;;;;;;;12.23;3.40;;;;;;;;;;4957650;29;20032;-54
2024/01/01 08:39:49;;;;;;;21.97;4.53;;;;;;;;;;4968325;29;20023;-55
2024/01/01 08:42:14;;;;;;;19.80;4.73;;;;;;;;;;4956791;29;20066;-54
2024/01/01 08:44:40;;;;;;;18.98;4.90;;;;;;;;;;4965568;29;20038;-56
2024/01/01 08:47:05;;;;;;;21.17;4.57;;;;;;;;;;4963393;29;20039;-54
2024/01/01 08:49:31;;;;;;;21.10;5.35;;;;;;;;;;4964964;29;20044;-54
2024/01/01 08:51:56;;;;;;;17.33;3.97;;;;;;;;;;4956461;29;20043;-53
2024/01/01 08:54:22;;;;;;;17.17;4.37;;;;;;;;;;4956212;29;20266;-53
2024/01/01 08:56:48;;;;;;;24.52;4.30;;;;;;;;;;4956666;29;20028;-54
2024/01/01 08:59:15;;;;;;;22.02;4.15;;;;;;;;;;4956231;29;20075;-55
2024/01/01 09:01:47;;;;;;;39.75;5.35;;;;;;;;;;4956681;29;20039;-53
2024/01/01 09:04:13;;;;;;;21.88;4.28;;;;;;;;;;4956161;29;20153;-54
2024/01/01 09:06:39;;;;;;;21.77;5.47;;;;;;;;;;4966692;29;20031;-55
2024/01/01 09:09:04;;;;;;;25.05;5.57;;;;;;;;;;4958565;29;20039;-49
2024/01/01 09:11:30;;;;;;;34.87;5.07;;;;;;;;;;4956493;29;20064;-50
2024/01/01 09:13:55;;;;;;;24.43;5.00;;;;;;;;;;4956412;29;20024;-50
2024/01/01 09:16:22;;;;;;;21.63;4.20;;;;;;;;;;4956579;29;20087;-55
2024/01/01 09:18:47;;;;;;;11.07;3.40;;;;;;;;;;4971912;28;20277;-51
2024/01/01 09:21:14;;;;;;;29.27;3.73;;;;;;;;;;4968602;29;20055;-50
2024/01/01 09:23:39;;;;;;;17.65;4.13;;;;;;;;;;4959316;29;20039;-55
2024/01/01 09:26:05;;;;;;;16.93;5.63;;;;;;;;;;4960279;29;20039;-55
2024/01/01 09:28:33;;;;;;;17.38;4.28;;;;;;;;;;4968509;29;20059;-55
2024/01/01 09:30:58;;;;;;;11.52;3.50;;;;;;;;;;4948548;29;20104;-54
2024/01/01 09:33:24;;;;;;;20.65;5.97;;;;;;;;;;4959879;29;20497;-57
2024/01/01 09:35:51;;;;;;;24.45;4.15;;;;;;;;;;4967157;29;20031;-55
2024/01/01 09:38:16;;;;;;;29.58;5.10;;;;;;;;;;4969887;29;20042;-54
2024/01/01 09:40:42;;;;;;;18.02;3.95;;;;;;;;;;4959668;29;20031;-54
2024/01/01 09:43:14;;;;;;;17.80;3.85;;;;;;;;;;4959421;29;20055;-52
2024/01/01 09:45:39;;;;;;;9.90;3.30;;;;;;;;;;4959426;29;20039;-52
2024/01/01 09:48:05;;;;;;;14.90;4.97;;;;;;;;;;4949465;29;20051;-53
2024/01/01 09:50:31;;;;;;;31.05;4.20;;;;;;;;;;4962491;29;20271;-55
2024/01/01 09:52:58;;;;;;;11.73;4.30;;;;;;;;;;4959185;29;20035;-56
2024/01/01 09:55:23;;;;;;;36.03;4.23;;;;;;;;;;4942003;29;20067;-54
2024/01/01 09:57:49;;;;;;;32.80;5.87;;;;;;;;;;4961566;29;20266;-54
2024/01/01 10:00:32;;;;;;;20.25;4.60;;;;;;;;;;4968640;29;20064;-52
2024/01/01 10:03:10;;;;;;;32.67;6.47;;;;;;;;;;4958352;29;20054;-53
2024/01/01 10:05:38;;;;;;;17.53;4.00;;;;;;;;;;4943667;29;20293;-52
2024/01/01 10:08:11;;;;;;;17.53;3.90;;;;;;;;;;4968709;29;20273;-51
2024/01/01 10:10:38;;;;;;;33.47;4.57;;;;;;;;;;4972223;29;20264;-55
2024/01/01 10:13:06;;;;;;;14.93;4.32;;;;;;;;;;4959122;29;20274;-50
2024/01/01 10:15:32;;;;;;;17.55;3.33;;;;;;;;;;4958860;29;20032;-51
2024/01/01 10:18:07;;;;;;;12.93;3.40;;;;;;;;;;4964522;29;20058;-56
2024/01/01 10:20:32;;;;;;;15.75;3.20;;;;;;;;;;4959078;29;20024;-56
2024/01/01 10:22:58;;;;;;;12.43;3.30;;;;;;;;;;4958865;29;20032;-55
2024/01/01 10:25:25;;;;;;;15.00;2.97;;;;;;;;;;4958469;29;20036;-53
2024/01/01 10:27:55;;;;;;;12.97;3.00;;;;;;;;;;4968020;29;20038;-57
2024/01/01 10:30:20;;;;;;;14.63;3.00;;;;;;;;;;4957705;29;20277;-53
2024/01/01 10:32:47;;;;;;;9.83;2.80;;;;;;;;;;4958536;29;20290;-52
2024/01/01 10:35:13;;;;;;;15.88;3.75;;;;;;;;;;4958162;29;20270;-54
2024/01/01 10:37:39;;;;;;;21.52;3.47;;;;;;;;;;4959019;29;20035;-54
2024/01/01 10:40:05;;;;;;;13.75;3.85;;;;;;;;;;4965452;29;20024;-55
2024/01/01 10:42:34;;;;;;;14.25;3.95;;;;;;;;;;4958668;29;20103;-55
2024/01/01 10:45:03;;;;;;;10.40;3.70;;;;;;;;;;4957743;29;20039;-56
2024/01/01 10:47:29;;;;;;;19.70;3.60;;;;;;;;;;4958624;29;20095;-53
2024/01/01 10:50:00;;;;;;;11.15;3.28;;;;;;;;;;4950919;29;20039;-55
2024/01/01 10:52:38;;;;;;;15.82;3.58;;;;;;;;;;4963554;29;20039;-51
2024/01/01 10:55:11;;;;;;;15.57;3.15;;;;;;;;;;4958268;29;20028;-55
2024/01/01 10:58:03;;;;;;;15.95;3.70;;;;;;;;;;4958475;29;20055;-56
2024/01/01 11:00:34;;;;;;;20.50;4.93;;;;;;;;;;4958391;29;20038;-52
2024/01/01 11:02:59;;;;;;;14.38;3.80;;;;;;;;;;4946800;29;20262;-53
2024/01/01 11:05:35;;;;;;;21.47;4.30;;;;;;;;;;4957731;29;20052;-53
2024/01/01 11:08:01;;;;;;;17.37;3.93;;;;;;;;;;4965617;29;20410;-51
2024/01/01 11:10:44;;;;;;;19.00;3.05;;;;;;;;;;4954414;29;20294;-52
2024/01/01 11:13:11;;;;;;;24.33;3.33;;;;;;;;;;4957484;29;20032;-54
2024/01/01 11:15:37;;;;;;;13.93;2.80;;;;;;;;;;4961284;29;20286;-49
2024/01/01 11:18:12;;;;;;;10.98;2.90;;;;;;;;;;4965226;29;20266;-55
2024/01/01 11:20:51;;;;;;;13.23;2.57;;;;;;;;;;4961614;29;20059;-51
2024/01/01 11:23:36;;;;;;;16.93;3.20;;;;;;;;;;4961820;29;20258;-56
2024/01/01 11:26:01;;;;;;;15.30;2.10;;;;;;;;;;4957113;29;20290;-53
2024/01/01 11:28:37;;;;;;;12.77;2.37;;;;;;;;;;4957555;29;20284;-53
2024/01/01 11:31:02;;;;;;;21.07;2.70;;;;;;;;;;4963930;29;20043;-56
2024/01/01 11:33:28;;;;;;;22.20;4.20;;;;;;;;;;4957374;29;20266;-55
2024/01/01 11:36:04;;;;;;;16.13;3.22;;;;;;;;;;4957356;29;20124;-53
2024/01/01 11:38:30;;;;;;;23.95;3.67;;;;;;;;;;4968992;29;20099;-53
2024/01/01 11:40:56;;;;;;;25.10;3.93;;;;;;;;;;4971110;28;20075;-53
2024/01/01 11:43:21;;;;;;;20.10;4.57;;;;;;;;;;4960287;29;20094;-55
2024/01/01 11:45:47;;;;;;;19.40;5.07;;;;;;;;;;4957107;29;20043;-54
2024/01/01 11:48:12;;;;;;;17.40;3.70;;;;;;;;;;4956840;29;20273;-52
2024/01/01 11:50:37;;;;;;;15.20;3.47;;;;;;;;;;4964714;29;20032;-55
2024/01/01 11:53:03;;;;;;;11.80;3.80;;;;;;;;;;4957093;29;20071;-54
2024/01/01 11:55:28;;;;;;;24.90;4.47;;;;;;;;;;4957306;29;20032;-53
2024/01/01 11:57:54;;;;;;;16.20;3.13;;;;;;;;;;4956903;29;20055;-54
2024/01/01 12:00:20;;;;;;;33.53;4.90;;;;;;;;;;4960994;29;20035;-54
2024/01/01 12:02:45;;;;;;;;;;;;;;;;;;4959238;29;20285;-55
2024/01/01 12:05:11;;;;;;;19.80;5.10;;;;;;;;;;4962399;29;19930;-54
2024/01/01 12:07:37;;;;;;;30.52;4.10;;;;;;;;;;4970248;29;20062;-55
2024/01/01 12:10:06;;;;;;;23.27;3.72;;;;;;;;;;4958237;29;20051;-56
2024/01/01 12:12:32;;;;;;;16.30;3.03;;;;;;;;;;4968257;29;20024;-51
2024/01/01 12:15:09;;;;;;;16.13;3.45;;;;;;;;;;4956944;29;20266;-52
2024/01/01 12:17:44;;;;;;;17.90;3.25;;;;;;;;;;4959241;29;20016;-55
2024/01/01 12:20:10;;;;;;;13.97;2.97;;;;;;;;;;4972531;29;20031;-55
2024/01/01 12:22:36;;;;;;;16.90;3.15;;;;;;;;;;4964691;29;20282;-56
2024/01/01 12:25:01;;;;;;;22.38;4.15;;;;;;;;;;4939936;29;20048;-53
2024/01/01 12:27:26;;;;;;;24.83;4.73;;;;;;;;;;4959608;29;20063;-54
2024/01/01 12:29:52;;;;;;;20.07;3.67;;;;;;;;;;4956608;29;20036;-54
2024/01/01 12:32:17;;;;;;;23.02;3.47;;;;;;;;;;4960770;29;20045;-51
2024/01/01 12:34:43;;;;;;;21.47;3.20;;;;;;;;;;4956543;29;20031;-55
2024/01/01 12:37:08;;;;;;;22.15;2.90;;;;;;;;;;4956336;29;20056;-52
2024/01/01 12:39:34;;;;;;;16.98;3.72;;;;;;;;;;4942324;29;20085;-56
2024/01/01 12:41:59;;;;;;;15.00;2.10;;;;;;;;;;4962802;29;20039;-55
2024/01/01 12:44:25;;;;;;;10.18;2.13;;;;;;;;;;4956823;29;20040;-54
2024/01/01 12:46:50;;;;;;;14.43;3.40;;;;;;;;;;4956439;29;20031;-53
2024/01/01 12:49:16;;;;;;;15.18;3.38;;;;;;;;;;4956546;29;20067;-52
2024/01/01 12:51:44;;;;;;;18.42;2.92;;;;;;;;;;4948365;29;20059;-53
2024/01/01 12:54:10;;;;;;;16.07;2.70;;;;;;;;;;4960149;29;20046;-55
2024/01/01 12:56:35;;;;;;;21.27;3.37;;;;;;;;;;4959964;29;20262;-56
2024/01/01 12:59:00;;;;;;;19.27;3.80;;;;;;;;;;4959751;29;20038;-54
2024/01/01 13:01:25;;;;;;;17.57;3.27;;;;;;;;;;4965570;29;20035;-53
2024/01/01 13:03:51;;;;;;;23.30;3.73;;;;;;;;;;4959915;29;20046;-56
2024/01/01 13:06:16;;;;;;;16.03;3.43;;;;;;;;;;4971676;29;20032;-54
2024/01/01 13:08:43;;;;;;;20.75;4.07;;;;;;;;;;4959604;29;20032;-55
2024/01/01 13:11:10;;;;;;;16.63;3.77;;;;;;;;;;4968472;29;20047;-56
2024/01/01 13:13:35;;;;;;;;;;;;;;;;;;4966273;29;20737;-55
2024/01/01 13:16:01;;;;;;;24.33;3.78;;;;;;;;;;4943416;29;19914;-54
2024/01/01 13:18:26;;;;;;;17.83;3.50;;;;;;;;;;4959933;29;20031;-56
2024/01/01 13:20:51;;;;;;;20.50;4.10;;;;;;;;;;4961801;29;20043;-56
2024/01/01 13:23:17;;;;;;;16.47;3.23;;;;;;;;;;4963561;29;20038;-52
2024/01/01 13:25:43;;;;;;;27.85;4.45;;;;;;;;;;4960353;29;20063;-55
2024/01/01 13:28:09;;;;;;;22.53;3.87;;;;;;;;;;4968461;29;20054;-55
2024/01/01 13:30:34;;;;;;;24.17;3.20;;;;;;;;;;4966726;29;20293;-55
2024/01/01 13:32:59;;;;;;;31.30;4.47;;;;;;;;;;4964255;29;20036;-55
2024/01/01 13:35:25;;;;;;;17.37;3.10;;;;;;;;;;4959904;29;20039;-52
2024/01/01 13:37:50;;;;;;;18.50;3.50;;;;;;;;;;4960036;29;20100;-53
2024/01/01 13:40:16;;;;;;;30.00;4.18;;;;;;;;;;4960559;29;20024;-55
2024/01/01 13:42:41;;;;;;;16.23;3.60;;;;;;;;;;4970500;29;20078;-56
2024/01/01 13:45:08;;;;;;;15.70;3.43;;;;;;;;;;4959691;29;20063;-55
2024/01/01 13:47:34;;;;;;;22.00;5.07;;;;;;;;;;4959198;29;20039;-53
2024/01/01 13:49:59;;;;;;;15.55;3.78;;;;;;;;;;4960313;29;20310;-54
2024/01/01 13:52:24;;;;;;;34.80;5.13;;;;;;;;;;4967204;29;20066;-54
2024/01/01 13:54:50;;;;;;;25.92;4.22;;;;;;;;;;4960278;29;20037;-52
2024/01/01 13:57:15;;;;;;;22.00;3.88;;;;;;;;;;4959051;29;20056;-54
2024/01/01 13:59:41;;;;;;;14.18;3.47;;;;;;;;;;4967120;29;20024;-54
2024/01/01 14:02:07;;;;;;;26.73;4.63;;;;;;;;;;4966257;29;20063;-55
2024/01/01 14:04:32;;;;;;;32.17;4.43;;;;;;;;;;4958112;29;20038;-54
2024/01/01 14:06:58;;;;;;;26.47;3.50;;;;;;;;;;4958887;29;20040;-56
2024/01/01 14:09:24;;;;;;;18.50;4.18;;;;;;;;;;4973026;29;20046;-55
2024/01/01 14:11:50;;;;;;;21.13;4.03;;;;;;;;;;4971740;29;20040;-52
2024/01/01 14:14:16;;;;;;;19.25;4.18;;;;;;;;;;4958909;29;20060;-55
2024/01/01 14:16:45;;;;;;;31.35;4.03;;;;;;;;;;4958622;29;20032;-56
2024/01/01 14:19:11;;;;;;;17.87;3.60;;;;;;;;;;4960561;29;20035;-53
2024/01/01 14:21:36;;;;;;;24.13;3.73;;;;;;;;;;4969163;29;20281;-54
2024/01/01 14:24:01;;;;;;;18.97;4.53;;;;;;;;;;4971691;29;20035;-54
2024/01/01 14:26:26;;;;;;;23.83;3.57;;;;;;;;;;4958861;29;20039;-56